Airfield :
LOGIN :

Register | Disclaimer

   EN    FR    IT 

 










Legend :    VFR   Marginal VFR   IFR   Intensive IFR   Very Intensive IFR
Visi :
Ceiling :
>= 8 km
>= 3000ft
5 to 8 km
1000 to 3000 ft
1500m to 5 km
500 to 1000 ft
800 to 1500m
200 to 500 ft
< 800m
< 200 ft
Symbols :   Thunderstorms  Fog  Heavy snow  Heavy precipitations  Wind > 20 kt
SIGMETs :     Misc.  Thunderstorms  Icing  Turbulence  Mountain Waves  Volcanic Ashes







- Airport Elevation : 266 ft
- IATA code : NCL
- Download approach charts


EGNT - Newcastle

CURRENT METAR :
  • 181450Z 17012KT 120V220 9999 -RA BKN012 08/06 Q0998

EXPIRED METARs :
  • 181420Z 17014KT 140V200 9999 -RA BKN012 09/06 Q0998
  • 181350Z 17016G26KT 130V200 9999 -RA BKN012 09/07 Q0998
  • 181320Z 17015G25KT 130V210 9999 -RA BKN012 09/07 Q0998
  • 181250Z 17016KT 120V210 9999 BKN012 09/07 Q0999
  • 181220Z 17015KT 130V200 9999 BKN012 09/07 Q0999

TAF TAF EGNT
Valid from the 18 at 12:00 until the 19 at 12:00 UTC


181101Z 1812/1912 17020G30KT 9999 SCT025
TEMPO 1812/1824 6000 RA BKN009
PROB30
TEMPO 1815/1818 4000 +RA
BECMG 1816/1819 17009KT
ATIS : +44 191 214 3400
No reported NOTAMs for that airfield.
4 SIGMETs reported for the Scottish FIR (EGPX) :
 
Severe turbulence
EGPX SIGMET 11 VALID 181500/181900 EGRR
EGPX SCOTTISH FIR SEV TURB FCST WI N6000 E00000 - N5900 E00146 - N5500 E00100 - N5500 W00200 - N6100 W00600 - N6100 E00000 - N6000 E00000 SFC/FL060 MOV NE WKN=
Severe mountain waves
EGPX SIGMET 10 VALID 181500/181900 EGRR
EGPX SCOTTISH FIR SEV MTW FCST WI N5500 W00530 - N5355 W00530 - N5425 W00810 - N5520 W00655 - N5756 W00740 - N6100 W00047 - N5500 W00015 - N5500 W00530 FL030/250 STNR WKN=
Severe turbulence
EGPX SIGMET 08 VALID 181100/181500 EGRR
EGPX SCOTTISH FIR SEV TURB FCST WI N6000 E00000 - N5500 E00100 - N5500 W00530 - N6100 W00900 - N6100 E00000 - N6000 E00000 SFC/FL060 MOV E 10KT WKN=
Severe mountain waves
EGPX SIGMET 07 VALID 181100/181500 EGRR
EGPX SCOTTISH FIR SEV MTW FCST WI N5500 W00530 - N5355 W00530 - N5425 W00810 - N5520 W00655 - N5756 W00740 - N6100 W00047 - N5500 W00015 - N5500 W00530 FL030/250 STNR NC=



MET'MAP, your aeronautical weather chart ! - Copyright ORBIFLY December 2007 - Disclaimer

ORBIFLY MET'MAP TEAM :

Programming & Development : Alexandra Zaïnal
Concept & Development : Baudouin d'Aumeries
Co-Development & Prog : Marc-Olivier Méhu
Technical & hardware support : Manuel Goepfert

Contact : metmap@orbifly.com




SOURCES & CREDITS :

   NOAA